createdAt,value
2023-02-06T00:01:21.114Z,102612.90
2023-02-06T00:03:48.378Z,102605.58
2023-02-06T00:06:15.745Z,102608.64
2023-02-06T00:08:42.678Z,102609.36
2023-02-06T00:11:13.440Z,102612.34
2023-02-06T00:13:40.189Z,102611.48
2023-02-06T00:16:16.324Z,102613.58
2023-02-06T00:18:43.022Z,102614.78
2023-02-06T00:21:10.018Z,102612.92
2023-02-06T00:23:36.955Z,102609.55
2023-02-06T00:26:04.076Z,102609.02
2023-02-06T00:28:30.711Z,102614.45
2023-02-06T00:30:57.442Z,102616.63
2023-02-06T00:33:24.175Z,102622.74
2023-02-06T00:35:50.877Z,102623.38
2023-02-06T00:38:17.474Z,102622.80
2023-02-06T00:40:44.351Z,102628.36
2023-02-06T00:43:10.926Z,102630.43
2023-02-06T00:45:37.716Z,102631.55
2023-02-06T00:48:04.608Z,102630.08
2023-02-06T00:50:31.278Z,102631.04
2023-02-06T00:52:57.904Z,102628.83
2023-02-06T00:55:24.602Z,102622.20
2023-02-06T00:57:51.247Z,102625.08
2023-02-06T01:00:18.404Z,102627.73
2023-02-06T01:02:45.249Z,102628.63
2023-02-06T01:05:11.989Z,102626.92
2023-02-06T01:07:40.365Z,102629.38
2023-02-06T01:10:09.172Z,102628.61
2023-02-06T01:12:37.101Z,102632.23
2023-02-06T01:15:09.659Z,102636.50
2023-02-06T01:17:37.802Z,102636.46
2023-02-06T01:20:06.459Z,102631.63
2023-02-06T01:22:34.805Z,102627.98
2023-02-06T01:25:01.755Z,102625.21
2023-02-06T01:27:28.770Z,102626.33
2023-02-06T01:29:55.492Z,102626.03
2023-02-06T01:32:22.123Z,102620.14
2023-02-06T01:34:48.707Z,102615.64
2023-02-06T01:37:15.403Z,102612.03
2023-02-06T01:39:42.061Z,102611.45
2023-02-06T01:42:12.599Z,102610.12
2023-02-06T01:44:39.828Z,102608.74
2023-02-06T01:47:06.477Z,102612.69
2023-02-06T01:49:38.105Z,102617.70
2023-02-06T01:52:14.441Z,102621.98
2023-02-06T01:54:43.410Z,102625.17
2023-02-06T01:57:12.222Z,102626.05
2023-02-06T01:59:42.384Z,102622.57
2023-02-06T02:02:09.045Z,102620.89
2023-02-06T02:04:35.724Z,102618.21
2023-02-06T02:07:17.233Z,102618.78
2023-02-06T02:09:43.867Z,102621.63
2023-02-06T02:12:11.265Z,102620.31
2023-02-06T02:14:41.227Z,102622.28
2023-02-06T02:17:16.759Z,102620.25
2023-02-06T02:20:05.662Z,102615.23
2023-02-06T02:23:09.484Z,102613.30
2023-02-06T02:26:13.401Z,102616.60
2023-02-06T02:28:45.741Z,102620.46
2023-02-06T02:31:31.541Z,102618.53
2023-02-06T02:34:29.874Z,102619.22
2023-02-06T02:37:11.423Z,102622.78
2023-02-06T02:40:31.139Z,102628.30
2023-02-06T02:43:13.162Z,102633.89
2023-02-06T02:45:47.293Z,102629.99
2023-02-06T02:48:36.131Z,102633.43
2023-02-06T02:51:04.146Z,102639.33
2023-02-06T02:53:31.676Z,102638.88
2023-02-06T02:56:00.176Z,102642.07
2023-02-06T02:58:30.366Z,102642.96
2023-02-06T03:01:02.627Z,102645.73
2023-02-06T03:03:31.608Z,102649.75
2023-02-06T03:06:30.890Z,102652.40
2023-02-06T03:09:05.891Z,102639.70
2023-02-06T03:11:32.923Z,102631.03
2023-02-06T03:14:09.339Z,102629.91
2023-02-06T03:16:47.782Z,102629.86
2023-02-06T03:19:25.051Z,102627.01
2023-02-06T03:21:51.834Z,102623.64
2023-02-06T03:24:28.841Z,102618.52
2023-02-06T03:27:00.504Z,102617.44
2023-02-06T03:29:31.633Z,102614.59
2023-02-06T03:32:02.675Z,102614.35
2023-02-06T03:34:33.375Z,102621.70
2023-02-06T03:37:00.244Z,102626.45
2023-02-06T03:39:27.171Z,102632.90
2023-02-06T03:41:56.979Z,102636.98
2023-02-06T03:44:30.372Z,102635.88
2023-02-06T03:47:00.172Z,102638.04
2023-02-06T03:49:30.507Z,102638.04
2023-02-06T03:52:03.547Z,102636.17
2023-02-06T03:54:32.397Z,102638.02
2023-02-06T03:57:02.818Z,102641.96
2023-02-06T03:59:30.096Z,102647.79
2023-02-06T04:01:59.343Z,102652.09
2023-02-06T04:04:30.795Z,102655.45
2023-02-06T04:07:21.181Z,102661.21
2023-02-06T04:09:48.003Z,102670.09
2023-02-06T04:12:15.414Z,102681.12
2023-02-06T04:14:45.263Z,102682.17
2023-02-06T04:17:12.321Z,102676.15
2023-02-06T04:19:39.922Z,102677.55
2023-02-06T04:22:07.185Z,102678.83
2023-02-06T04:24:33.971Z,102682.15
2023-02-06T04:27:00.673Z,102676.39
2023-02-06T04:29:27.424Z,102674.81
2023-02-06T04:31:54.071Z,102677.75
2023-02-06T04:34:20.748Z,102676.33
2023-02-06T04:36:47.386Z,102676.23
2023-02-06T04:39:14.027Z,102672.13
2023-02-06T04:41:40.706Z,102670.14
2023-02-06T04:44:07.328Z,102669.75
2023-02-06T04:46:34.014Z,102674.45
2023-02-06T04:49:00.630Z,102671.98
2023-02-06T04:51:27.221Z,102668.00
2023-02-06T04:53:53.808Z,102669.77
2023-02-06T04:56:20.721Z,102663.10
2023-02-06T04:58:47.690Z,102664.66
2023-02-06T05:01:16.821Z,102667.10
2023-02-06T05:03:43.897Z,102670.61
2023-02-06T05:06:10.545Z,102672.15
2023-02-06T05:08:37.962Z,102672.89
2023-02-06T05:11:05.060Z,102665.02
2023-02-06T05:13:31.713Z,102668.18
2023-02-06T05:16:04.269Z,102671.15
2023-02-06T05:18:30.890Z,102671.41
2023-02-06T05:20:57.537Z,102670.12
2023-02-06T05:23:24.209Z,102671.15
2023-02-06T05:25:50.938Z,102673.11
2023-02-06T05:28:18.274Z,102674.77
2023-02-06T05:30:45.321Z,102673.96
2023-02-06T05:33:12.335Z,102678.48
2023-02-06T05:35:40.115Z,102674.42
2023-02-06T05:38:06.747Z,102677.88
2023-02-06T05:40:33.328Z,102682.91
2023-02-06T05:43:00.036Z,102683.80
2023-02-06T05:45:26.670Z,102688.26
2023-02-06T05:47:54.586Z,102692.21
2023-02-06T05:50:21.389Z,102699.66
2023-02-06T05:52:48.026Z,102698.58
2023-02-06T05:55:17.003Z,102703.21
2023-02-06T05:57:44.484Z,102705.39
2023-02-06T06:00:12.661Z,102710.40
2023-02-06T06:02:39.640Z,102714.67
2023-02-06T06:05:06.906Z,102713.05
2023-02-06T06:07:33.652Z,102718.61
2023-02-06T06:10:00.619Z,102722.31
2023-02-06T06:12:27.302Z,102723.85
2023-02-06T06:14:53.956Z,102722.23
2023-02-06T06:17:21.287Z,102719.32
2023-02-06T06:19:47.939Z,102720.52
2023-02-06T06:22:14.916Z,102727.52
2023-02-06T06:24:41.678Z,102729.68
2023-02-06T06:27:10.757Z,102729.36
2023-02-06T06:29:37.850Z,102728.06
2023-02-06T06:32:06.050Z,102732.95
2023-02-06T06:34:32.753Z,102733.94
2023-02-06T06:36:59.415Z,102730.73
2023-02-06T06:39:26.135Z,102736.14
2023-02-06T06:41:52.783Z,102736.64
2023-02-06T06:44:19.457Z,102736.12
2023-02-06T06:46:46.471Z,102745.27
2023-02-06T06:49:13.245Z,102743.52
2023-02-06T06:51:39.882Z,102739.08
2023-02-06T06:54:06.690Z,102742.09
2023-02-06T06:56:33.312Z,102746.25
2023-02-06T06:58:59.953Z,102748.45
2023-02-06T07:01:26.703Z,102743.35
2023-02-06T07:03:53.398Z,102742.52
2023-02-06T07:06:20.072Z,102745.58
2023-02-06T07:08:46.694Z,102752.45
2023-02-06T07:11:14.977Z,102756.14
2023-02-06T07:13:42.320Z,102751.57
2023-02-06T07:16:09.401Z,102750.38
2023-02-06T07:18:36.083Z,102749.48
2023-02-06T07:21:03.568Z,102745.84
2023-02-06T07:23:30.308Z,102740.22
2023-02-06T07:26:02.229Z,102737.95
2023-02-06T07:28:30.150Z,102745.86
2023-02-06T07:31:01.327Z,102742.05
2023-02-06T07:33:28.626Z,102739.25
2023-02-06T07:35:55.417Z,102739.54
2023-02-06T07:38:22.335Z,102741.38
2023-02-06T07:40:49.047Z,102744.55
2023-02-06T07:43:16.158Z,102750.34
2023-02-06T07:45:42.823Z,102749.40
2023-02-06T07:48:09.972Z,102747.73
2023-02-06T07:50:36.918Z,102745.31
2023-02-06T07:53:03.565Z,102750.02
2023-02-06T07:55:30.261Z,102741.31
2023-02-06T07:57:56.915Z,102746.23
2023-02-06T08:00:23.615Z,102750.05
2023-02-06T08:02:51.092Z,102748.65
2023-02-06T08:05:18.453Z,102749.63
2023-02-06T08:07:45.266Z,102745.38
2023-02-06T08:10:11.905Z,102739.92
2023-02-06T08:12:38.552Z,102741.10
2023-02-06T08:15:05.539Z,102746.52
2023-02-06T08:17:32.172Z,102743.90
2023-02-06T08:19:58.831Z,102745.66
2023-02-06T08:22:25.572Z,102747.86
2023-02-06T08:24:52.508Z,102750.80
2023-02-06T08:27:19.147Z,102754.64
2023-02-06T08:29:46.055Z,102753.77
2023-02-06T08:32:12.723Z,102749.20
2023-02-06T08:34:40.128Z,102748.17
2023-02-06T08:37:06.915Z,102744.55
2023-02-06T08:39:33.584Z,102741.45
2023-02-06T08:42:00.279Z,102735.75
2023-02-06T08:44:26.861Z,102736.58
2023-02-06T08:47:08.897Z,102738.93
2023-02-06T08:49:36.520Z,102736.45
2023-02-06T08:52:03.436Z,102737.33
2023-02-06T08:54:30.186Z,102733.56
2023-02-06T08:56:58.451Z,102731.40
2023-02-06T08:59:25.216Z,102732.13
2023-02-06T09:01:52.261Z,102732.52
2023-02-06T09:04:19.560Z,102733.50
2023-02-06T09:06:50.329Z,102736.05
2023-02-06T09:09:17.075Z,102739.65
2023-02-06T09:11:44.118Z,102736.96
2023-02-06T09:14:15.624Z,102730.02
2023-02-06T09:16:42.373Z,102730.98
2023-02-06T09:19:10.877Z,102727.98
2023-02-06T09:21:38.241Z,102722.35
2023-02-06T09:24:08.640Z,102722.90
2023-02-06T09:26:44.770Z,102725.90
2023-02-06T09:29:20.338Z,102726.10
2023-02-06T09:31:47.814Z,102723.80
2023-02-06T09:34:14.631Z,102726.77
2023-02-06T09:36:41.948Z,102731.77
2023-02-06T09:39:09.544Z,102723.50
2023-02-06T09:41:44.746Z,102722.23
2023-02-06T09:44:24.610Z,102722.75
2023-02-06T09:46:56.518Z,102715.44
2023-02-06T09:49:39.726Z,102715.38
2023-02-06T09:52:25.311Z,102711.52
2023-02-06T09:54:59.212Z,102708.42
2023-02-06T09:57:31.393Z,102704.61
2023-02-06T10:00:24.064Z,102707.38
2023-02-06T10:03:15.308Z,102707.02
2023-02-06T10:05:54.256Z,102704.74
2023-02-06T10:08:52.325Z,102698.20
2023-02-06T10:11:48.041Z,102698.88
2023-02-06T10:14:22.360Z,102696.54
2023-02-06T10:17:02.851Z,102694.30
2023-02-06T10:19:43.814Z,102701.40
2023-02-06T10:22:28.696Z,102704.29
2023-02-06T10:25:21.114Z,102702.20
2023-02-06T10:27:54.826Z,102695.61
2023-02-06T10:30:35.803Z,102694.62
2023-02-06T10:33:25.234Z,102686.65
2023-02-06T10:36:08.600Z,102689.61
2023-02-06T10:38:35.137Z,102684.97
2023-02-06T10:41:34.785Z,102680.73
2023-02-06T10:44:18.396Z,102681.70
2023-02-06T10:46:51.003Z,102677.86
2023-02-06T10:49:53.301Z,102676.17
2023-02-06T10:52:32.648Z,102669.77
2023-02-06T10:55:32.823Z,102665.41
2023-02-06T10:58:16.465Z,102662.04
2023-02-06T11:00:46.478Z,102662.07
2023-02-06T11:03:20.437Z,102661.02
2023-02-06T11:05:48.101Z,102657.89
2023-02-06T11:08:31.897Z,102657.98
2023-02-06T11:11:25.362Z,102661.12
2023-02-06T11:14:05.502Z,102654.11
2023-02-06T11:16:36.216Z,102659.74
2023-02-06T11:19:31.334Z,102657.13
2023-02-06T11:22:27.037Z,102657.01
2023-02-06T11:24:59.738Z,102659.97
2023-02-06T11:27:27.769Z,102657.29
2023-02-06T11:29:55.086Z,102653.17
2023-02-06T11:32:52.759Z,102652.20
2023-02-06T11:35:47.451Z,102646.65
2023-02-06T11:38:23.080Z,102645.92
2023-02-06T11:41:16.512Z,102640.97
2023-02-06T11:43:43.056Z,102632.25
2023-02-06T11:46:24.558Z,102630.33
2023-02-06T11:48:58.678Z,102628.94
2023-02-06T11:51:44.297Z,102622.86
2023-02-06T11:54:20.908Z,102623.64
2023-02-06T11:57:19.113Z,102618.42
2023-02-06T12:00:00.842Z,102614.39
2023-02-06T12:02:39.162Z,102608.88
2023-02-06T12:05:13.369Z,102603.20
2023-02-06T12:08:02.898Z,102595.70
2023-02-06T12:10:35.033Z,102596.16
2023-02-06T12:13:28.033Z,102591.82
2023-02-06T12:16:00.908Z,102590.30
2023-02-06T12:18:37.077Z,102584.49
2023-02-06T12:21:13.414Z,102584.91
2023-02-06T12:23:45.958Z,102583.41
2023-02-06T12:26:22.647Z,102577.58
2023-02-06T12:29:11.948Z,102571.15
2023-02-06T12:31:47.657Z,102561.83
2023-02-06T12:34:20.164Z,102554.25
2023-02-06T12:37:08.895Z,102551.77
2023-02-06T12:39:35.638Z,102548.98
2023-02-06T12:42:14.565Z,102547.02
2023-02-06T12:44:54.116Z,102544.27
2023-02-06T12:47:42.339Z,102539.00
2023-02-06T12:50:20.237Z,102532.27
2023-02-06T12:53:19.480Z,102527.07
2023-02-06T12:55:55.177Z,102526.33
2023-02-06T12:58:42.136Z,102520.09
2023-02-06T13:01:34.680Z,102518.55
2023-02-06T13:04:33.102Z,102514.48
2023-02-06T13:07:06.722Z,102512.73
2023-02-06T13:09:59.537Z,102510.79
2023-02-06T13:12:31.115Z,102503.61
2023-02-06T13:15:02.247Z,102496.12
2023-02-06T13:17:35.763Z,102491.39
2023-02-06T13:20:05.483Z,102486.35
2023-02-06T13:22:45.866Z,102481.80
2023-02-06T13:25:30.701Z,102486.05
2023-02-06T13:27:59.481Z,102480.85
2023-02-06T13:30:28.948Z,102478.63
2023-02-06T13:33:14.396Z,102476.64
2023-02-06T13:36:02.722Z,102479.80
2023-02-06T13:38:35.455Z,102481.34
2023-02-06T13:41:17.116Z,102480.93
2023-02-06T13:44:22.425Z,102489.98
2023-02-06T13:47:08.699Z,102491.41
2023-02-06T13:50:19.382Z,102495.54
2023-02-06T13:53:01.219Z,102492.92
2023-02-06T13:55:43.151Z,102483.89
2023-02-06T13:58:24.278Z,102485.22
2023-02-06T14:00:52.256Z,102484.33
2023-02-06T14:03:32.411Z,102482.81
2023-02-06T14:06:11.460Z,102479.20
2023-02-06T14:09:01.760Z,102482.86
2023-02-06T14:12:06.593Z,102478.89
2023-02-06T14:14:53.388Z,102468.27
2023-02-06T14:17:39.192Z,102454.08
2023-02-06T14:20:33.358Z,102447.36
2023-02-06T14:24:11.216Z,102445.38
2023-02-06T14:27:03.003Z,102441.24
2023-02-06T14:29:59.629Z,102443.45
2023-02-06T14:32:48.274Z,102449.90
2023-02-06T14:35:14.876Z,102452.73
2023-02-06T14:38:26.030Z,102455.39
2023-02-06T14:40:55.543Z,102458.98
2023-02-06T14:43:26.125Z,102465.59
2023-02-06T14:46:07.018Z,102466.06
2023-02-06T14:48:43.783Z,102466.71
2023-02-06T14:51:26.735Z,102466.09
2023-02-06T14:54:05.518Z,102468.52
2023-02-06T14:56:38.008Z,102468.50
2023-02-06T14:59:13.701Z,102466.42
2023-02-06T15:01:41.883Z,102466.67
2023-02-06T15:04:18.420Z,102465.23
2023-02-06T15:06:56.529Z,102465.23
2023-02-06T15:09:31.338Z,102462.75
2023-02-06T15:12:04.239Z,102465.79
2023-02-06T15:14:33.746Z,102459.08
2023-02-06T15:17:02.737Z,102462.30
2023-02-06T15:19:32.349Z,102466.26
2023-02-06T15:22:11.687Z,102464.44
2023-02-06T15:25:12.452Z,102466.54
2023-02-06T15:27:39.599Z,102468.73
2023-02-06T15:30:22.304Z,102466.52
2023-02-06T15:32:52.090Z,102460.17
2023-02-06T15:35:27.766Z,102459.88
2023-02-06T15:37:55.210Z,102456.29
2023-02-06T15:40:32.227Z,102451.92
2023-02-06T15:43:00.253Z,102458.34
2023-02-06T15:45:34.543Z,102455.40
2023-02-06T15:48:11.722Z,102457.14
2023-02-06T15:50:38.818Z,102456.73
2023-02-06T15:53:29.376Z,102454.69
2023-02-06T15:55:59.159Z,102455.93
2023-02-06T15:58:26.397Z,102454.04
2023-02-06T16:00:55.680Z,102447.80
2023-02-06T16:03:26.057Z,102447.67
2023-02-06T16:05:54.269Z,102446.91
2023-02-06T16:08:39.045Z,102448.37
2023-02-06T16:11:28.436Z,102450.11
2023-02-06T16:13:55.184Z,102450.79
2023-02-06T16:16:24.359Z,102443.91
2023-02-06T16:18:55.130Z,102444.14
2023-02-06T16:21:29.013Z,102446.79
2023-02-06T16:24:00.093Z,102447.99
2023-02-06T16:26:29.843Z,102444.85
2023-02-06T16:29:08.309Z,102444.77
2023-02-06T16:31:38.096Z,102446.96
2023-02-06T16:34:21.895Z,102446.14
2023-02-06T16:36:48.675Z,102441.58
2023-02-06T16:39:15.243Z,102440.05
2023-02-06T16:41:42.926Z,102437.61
2023-02-06T16:44:14.836Z,102436.17
2023-02-06T16:46:41.659Z,102437.25
2023-02-06T16:49:13.936Z,102438.89
2023-02-06T16:51:41.664Z,102440.33
2023-02-06T16:54:09.787Z,102448.21
2023-02-06T16:56:38.605Z,102456.31
2023-02-06T16:59:05.277Z,102454.85
2023-02-06T17:01:33.003Z,102458.61
2023-02-06T17:03:59.736Z,102460.25
2023-02-06T17:06:28.927Z,102464.16
2023-02-06T17:09:03.474Z,102465.14
2023-02-06T17:11:31.422Z,102472.54
2023-02-06T17:13:58.448Z,102466.85
2023-02-06T17:16:26.597Z,102468.88
2023-02-06T17:18:54.382Z,102475.64
2023-02-06T17:21:23.536Z,102484.05
2023-02-06T17:23:51.161Z,102487.88
2023-02-06T17:26:20.619Z,102487.11
2023-02-06T17:28:48.528Z,102485.50
2023-02-06T17:31:15.666Z,102485.10
2023-02-06T17:33:42.501Z,102485.80
2023-02-06T17:36:29.530Z,102483.63
2023-02-06T17:38:59.052Z,102487.98
2023-02-06T17:41:27.356Z,102484.29
2023-02-06T17:43:54.092Z,102488.17
2023-02-06T17:46:20.984Z,102487.67
2023-02-06T17:48:47.965Z,102487.51
2023-02-06T17:51:15.091Z,102494.39
2023-02-06T17:53:41.795Z,102499.30
2023-02-06T17:56:14.955Z,102501.80
2023-02-06T17:58:42.793Z,102505.80
2023-02-06T18:01:18.595Z,102506.84
2023-02-06T18:03:47.879Z,102502.55
2023-02-06T18:06:14.985Z,102503.05
2023-02-06T18:08:41.777Z,102508.25
2023-02-06T18:11:14.237Z,102513.68
2023-02-06T18:13:42.770Z,102508.60
2023-02-06T18:16:19.107Z,102507.56
2023-02-06T18:18:46.546Z,102510.16
2023-02-06T18:21:13.781Z,102506.54
2023-02-06T18:23:40.424Z,102507.30
2023-02-06T18:26:09.441Z,102502.55
2023-02-06T18:28:38.136Z,102505.73
2023-02-06T18:31:06.568Z,102504.39
2023-02-06T18:33:35.275Z,102507.16
2023-02-06T18:36:06.356Z,102509.18
2023-02-06T18:38:33.342Z,102512.35
2023-02-06T18:41:05.212Z,102509.34
2023-02-06T18:43:32.791Z,102507.15
2023-02-06T18:46:06.916Z,102507.35
2023-02-06T18:48:33.533Z,102510.38
2023-02-06T18:51:00.952Z,102517.30
2023-02-06T18:53:27.733Z,102517.52
2023-02-06T18:55:58.825Z,102516.25
2023-02-06T18:58:25.432Z,102520.63
2023-02-06T19:00:52.084Z,102525.06
2023-02-06T19:03:18.660Z,102522.19
2023-02-06T19:05:45.341Z,102524.10
2023-02-06T19:08:11.916Z,102523.98
2023-02-06T19:10:40.142Z,102525.96
2023-02-06T19:13:06.907Z,102526.67
2023-02-06T19:15:35.988Z,102529.35
2023-02-06T19:18:04.512Z,102532.70
2023-02-06T19:20:31.542Z,102534.20
2023-02-06T19:22:58.265Z,102539.68
2023-02-06T19:25:25.028Z,102545.41
2023-02-06T19:27:51.745Z,102545.36
2023-02-06T19:30:18.490Z,102544.17
2023-02-06T19:32:45.213Z,102535.89
2023-02-06T19:35:12.053Z,102542.20
2023-02-06T19:37:38.916Z,102542.42
2023-02-06T19:40:06.043Z,102542.60
2023-02-06T19:42:32.845Z,102543.52
2023-02-06T19:44:59.896Z,102547.48
2023-02-06T19:47:26.533Z,102548.67
2023-02-06T19:49:53.384Z,102545.86
2023-02-06T19:52:20.370Z,102539.02
2023-02-06T19:54:47.887Z,102547.13
2023-02-06T19:57:16.066Z,102547.39
2023-02-06T19:59:42.821Z,102548.35
2023-02-06T20:02:13.018Z,102549.99
2023-02-06T20:04:40.300Z,102554.98
2023-02-06T20:07:07.110Z,102556.56
2023-02-06T20:09:34.458Z,102558.55
2023-02-06T20:12:01.098Z,102560.80
2023-02-06T20:14:28.024Z,102563.46
2023-02-06T20:16:55.426Z,102567.41
2023-02-06T20:19:26.994Z,102571.74
2023-02-06T20:21:57.955Z,102574.02
2023-02-06T20:24:30.226Z,102581.25
2023-02-06T20:27:00.739Z,102586.02
2023-02-06T20:29:31.403Z,102586.84
2023-02-06T20:31:58.725Z,102590.39
2023-02-06T20:34:26.952Z,102594.77
2023-02-06T20:36:55.495Z,102604.85
2023-02-06T20:39:22.537Z,102609.55
2023-02-06T20:41:50.680Z,102614.43
2023-02-06T20:44:19.764Z,102618.59
2023-02-06T20:46:46.825Z,102623.55
2023-02-06T20:49:16.400Z,102633.88
2023-02-06T20:51:43.484Z,102641.10
2023-02-06T20:54:13.516Z,102646.53
2023-02-06T20:56:40.879Z,102648.36
2023-02-06T20:59:11.949Z,102652.24
2023-02-06T21:01:40.041Z,102650.56
2023-02-06T21:04:09.126Z,102652.83
2023-02-06T21:06:37.259Z,102652.77
2023-02-06T21:09:06.040Z,102652.89
2023-02-06T21:11:36.556Z,102654.95
2023-02-06T21:14:05.413Z,102663.16
2023-02-06T21:16:34.182Z,102665.64
2023-02-06T21:19:01.786Z,102668.65
2023-02-06T21:21:28.635Z,102664.93
2023-02-06T21:23:58.124Z,102662.77
2023-02-06T21:26:25.200Z,102668.75
2023-02-06T21:28:52.818Z,102667.23
2023-02-06T21:31:22.852Z,102670.92
2023-02-06T21:33:51.499Z,102675.41
2023-02-06T21:36:18.940Z,102677.48
2023-02-06T21:38:45.531Z,102679.15
2023-02-06T21:41:18.154Z,102679.08
2023-02-06T21:43:45.887Z,102676.30
2023-02-06T21:46:13.518Z,102678.17
2023-02-06T21:48:41.640Z,102683.27
2023-02-06T21:51:13.524Z,102688.17
2023-02-06T21:53:41.950Z,102689.46
2023-02-06T21:56:21.232Z,102687.23
2023-02-06T21:58:49.643Z,102687.02
2023-02-06T22:01:19.066Z,102682.55
2023-02-06T22:03:46.816Z,102683.89
2023-02-06T22:06:14.628Z,102683.08
2023-02-06T22:08:44.556Z,102684.45
2023-02-06T22:11:16.786Z,102685.09
2023-02-06T22:13:44.869Z,102687.36
2023-02-06T22:16:14.518Z,102685.11
2023-02-06T22:18:42.270Z,102686.48
2023-02-06T22:21:12.286Z,102688.99
2023-02-06T22:23:39.630Z,102688.64
2023-02-06T22:26:08.081Z,102690.51
2023-02-06T22:28:34.928Z,102693.60
2023-02-06T22:31:13.334Z,102692.59
2023-02-06T22:33:40.296Z,102698.27
2023-02-06T22:36:10.416Z,102698.46
2023-02-06T22:38:37.753Z,102703.90
2023-02-06T22:41:07.991Z,102711.56
2023-02-06T22:43:37.533Z,102715.84
2023-02-06T22:46:05.535Z,102715.97
2023-02-06T22:48:32.362Z,102723.19
2023-02-06T22:51:07.919Z,102722.16
2023-02-06T22:53:35.358Z,102718.58
2023-02-06T22:56:24.254Z,102717.91
2023-02-06T22:58:51.580Z,102716.64
2023-02-06T23:01:21.298Z,102715.54
2023-02-06T23:03:51.752Z,102716.64
2023-02-06T23:06:18.886Z,102718.62
2023-02-06T23:08:45.658Z,102721.80
2023-02-06T23:11:13.233Z,102713.03
2023-02-06T23:13:40.506Z,102715.66
2023-02-06T23:16:08.386Z,102717.07
2023-02-06T23:18:35.863Z,102712.84
2023-02-06T23:21:08.435Z,102717.23
2023-02-06T23:23:35.156Z,102716.55
2023-02-06T23:26:02.078Z,102720.36
2023-02-06T23:28:29.190Z,102723.02
2023-02-06T23:30:55.848Z,102726.21
2023-02-06T23:33:23.886Z,102728.58
2023-02-06T23:35:50.955Z,102733.70
2023-02-06T23:38:18.658Z,102730.16
2023-02-06T23:40:46.177Z,102732.05
2023-02-06T23:43:12.841Z,102738.98
2023-02-06T23:45:41.429Z,102743.06
2023-02-06T23:48:08.270Z,102735.44
2023-02-06T23:50:35.880Z,102740.36
2023-02-06T23:53:02.628Z,102738.23
2023-02-06T23:55:30.621Z,102738.39
2023-02-06T23:57:57.648Z,102743.55
